sensor_id;sensor_type;location;lat;lon;timestamp;P1;durP1;ratioP1;P2;durP2;ratioP2
24637;SDS011;12773;50.162;8.548;2023-02-04T00:00:57;18.57;;;2.85;;
24637;SDS011;12773;50.162;8.548;2023-02-04T00:03:44;13.20;;;2.45;;
24637;SDS011;12773;50.162;8.548;2023-02-04T00:06:32;10.08;;;2.60;;
24637;SDS011;12773;50.162;8.548;2023-02-04T00:09:19;14.47;;;2.60;;
24637;SDS011;12773;50.162;8.548;2023-02-04T00:12:07;9.73;;;2.60;;
24637;SDS011;12773;50.162;8.548;2023-02-04T00:14:55;18.20;;;3.67;;
24637;SDS011;12773;50.162;8.548;2023-02-04T00:17:42;11.43;;;2.83;;
24637;SDS011;12773;50.162;8.548;2023-02-04T00:20:30;16.62;;;2.70;;
24637;SDS011;12773;50.162;8.548;2023-02-04T00:23:17;18.10;;;3.27;;
24637;SDS011;12773;50.162;8.548;2023-02-04T00:26:05;11.50;;;3.15;;
24637;SDS011;12773;50.162;8.548;2023-02-04T00:28:52;13.93;;;2.70;;
24637;SDS011;12773;50.162;8.548;2023-02-04T00:31:40;9.48;;;2.30;;
24637;SDS011;12773;50.162;8.548;2023-02-04T00:34:27;16.12;;;3.37;;
24637;SDS011;12773;50.162;8.548;2023-02-04T00:37:17;10.23;;;2.35;;
24637;SDS011;12773;50.162;8.548;2023-02-04T00:40:08;19.20;;;2.70;;
24637;SDS011;12773;50.162;8.548;2023-02-04T00:42:57;13.28;;;2.83;;
24637;SDS011;12773;50.162;8.548;2023-02-04T00:45:44;15.13;;;2.80;;
24637;SDS011;12773;50.162;8.548;2023-02-04T00:48:32;8.70;;;2.10;;
24637;SDS011;12773;50.162;8.548;2023-02-04T00:51:19;15.20;;;2.62;;
24637;SDS011;12773;50.162;8.548;2023-02-04T00:54:07;12.80;;;3.30;;
24637;SDS011;12773;50.162;8.548;2023-02-04T00:56:55;12.18;;;2.20;;
24637;SDS011;12773;50.162;8.548;2023-02-04T00:59:42;13.55;;;2.40;;
24637;SDS011;12773;50.162;8.548;2023-02-04T01:02:33;12.58;;;2.47;;
24637;SDS011;12773;50.162;8.548;2023-02-04T01:05:20;12.43;;;1.98;;
24637;SDS011;12773;50.162;8.548;2023-02-04T01:08:07;15.83;;;2.83;;
24637;SDS011;12773;50.162;8.548;2023-02-04T01:10:55;10.03;;;2.98;;
24637;SDS011;12773;50.162;8.548;2023-02-04T01:13:42;11.08;;;2.47;;
24637;SDS011;12773;50.162;8.548;2023-02-04T01:16:29;12.45;;;2.67;;
24637;SDS011;12773;50.162;8.548;2023-02-04T01:19:17;11.28;;;2.60;;
24637;SDS011;12773;50.162;8.548;2023-02-04T01:22:05;13.18;;;2.62;;
24637;SDS011;12773;50.162;8.548;2023-02-04T01:24:52;13.18;;;2.60;;
24637;SDS011;12773;50.162;8.548;2023-02-04T01:27:40;12.30;;;2.70;;
24637;SDS011;12773;50.162;8.548;2023-02-04T01:30:28;15.83;;;3.52;;
24637;SDS011;12773;50.162;8.548;2023-02-04T01:33:15;10.90;;;2.62;;
24637;SDS011;12773;50.162;8.548;2023-02-04T01:36:03;11.95;;;2.87;;
24637;SDS011;12773;50.162;8.548;2023-02-04T01:38:50;16.77;;;2.60;;
24637;SDS011;12773;50.162;8.548;2023-02-04T01:41:38;15.85;;;2.40;;
24637;SDS011;12773;50.162;8.548;2023-02-04T01:44:26;14.30;;;2.25;;
24637;SDS011;12773;50.162;8.548;2023-02-04T01:47:14;12.33;;;2.00;;
24637;SDS011;12773;50.162;8.548;2023-02-04T01:50:01;12.82;;;2.42;;
24637;SDS011;12773;50.162;8.548;2023-02-04T01:52:50;13.35;;;2.52;;
24637;SDS011;12773;50.162;8.548;2023-02-04T01:55:38;14.15;;;4.17;;
24637;SDS011;12773;50.162;8.548;2023-02-04T01:58:26;16.97;;;2.55;;
24637;SDS011;12773;50.162;8.548;2023-02-04T02:01:32;13.50;;;2.40;;
24637;SDS011;12773;50.162;8.548;2023-02-04T02:04:26;13.98;;;3.50;;
24637;SDS011;12773;50.162;8.548;2023-02-04T02:07:18;11.18;;;2.30;;
24637;SDS011;12773;50.162;8.548;2023-02-04T02:10:07;14.15;;;2.58;;
24637;SDS011;12773;50.162;8.548;2023-02-04T02:12:57;18.92;;;2.67;;
24637;SDS011;12773;50.162;8.548;2023-02-04T02:15:45;17.12;;;2.98;;
24637;SDS011;12773;50.162;8.548;2023-02-04T02:18:33;15.78;;;2.52;;
24637;SDS011;12773;50.162;8.548;2023-02-04T02:21:22;14.83;;;2.80;;
24637;SDS011;12773;50.162;8.548;2023-02-04T02:24:27;14.60;;;2.77;;
24637;SDS011;12773;50.162;8.548;2023-02-04T02:27:18;11.97;;;2.52;;
24637;SDS011;12773;50.162;8.548;2023-02-04T02:30:07;16.40;;;2.95;;
24637;SDS011;12773;50.162;8.548;2023-02-04T02:32:56;12.90;;;2.90;;
24637;SDS011;12773;50.162;8.548;2023-02-04T02:35:43;20.75;;;2.83;;
24637;SDS011;12773;50.162;8.548;2023-02-04T02:38:38;11.28;;;2.80;;
24637;SDS011;12773;50.162;8.548;2023-02-04T02:41:26;20.82;;;3.08;;
24637;SDS011;12773;50.162;8.548;2023-02-04T02:44:13;13.95;;;3.42;;
24637;SDS011;12773;50.162;8.548;2023-02-04T02:47:02;13.45;;;2.90;;
24637;SDS011;12773;50.162;8.548;2023-02-04T02:49:50;12.37;;;2.85;;
24637;SDS011;12773;50.162;8.548;2023-02-04T02:52:39;15.13;;;2.52;;
24637;SDS011;12773;50.162;8.548;2023-02-04T02:55:27;18.05;;;2.75;;
24637;SDS011;12773;50.162;8.548;2023-02-04T02:58:15;13.93;;;2.55;;
24637;SDS011;12773;50.162;8.548;2023-02-04T03:01:08;21.27;;;3.02;;
24637;SDS011;12773;50.162;8.548;2023-02-04T03:03:55;9.93;;;2.10;;
24637;SDS011;12773;50.162;8.548;2023-02-04T03:06:43;14.93;;;2.70;;
24637;SDS011;12773;50.162;8.548;2023-02-04T03:09:31;12.95;;;2.65;;
24637;SDS011;12773;50.162;8.548;2023-02-04T03:12:20;13.68;;;2.47;;
24637;SDS011;12773;50.162;8.548;2023-02-04T03:15:07;16.05;;;2.62;;
24637;SDS011;12773;50.162;8.548;2023-02-04T03:17:54;15.72;;;2.92;;
24637;SDS011;12773;50.162;8.548;2023-02-04T03:20:42;18.35;;;2.67;;
24637;SDS011;12773;50.162;8.548;2023-02-04T03:23:31;13.38;;;2.40;;
24637;SDS011;12773;50.162;8.548;2023-02-04T03:26:19;19.17;;;2.45;;
24637;SDS011;12773;50.162;8.548;2023-02-04T03:29:07;20.02;;;2.95;;
24637;SDS011;12773;50.162;8.548;2023-02-04T03:31:55;22.20;;;2.95;;
24637;SDS011;12773;50.162;8.548;2023-02-04T03:34:44;20.75;;;2.92;;
24637;SDS011;12773;50.162;8.548;2023-02-04T03:37:32;18.17;;;3.15;;
24637;SDS011;12773;50.162;8.548;2023-02-04T03:40:19;19.92;;;2.65;;
24637;SDS011;12773;50.162;8.548;2023-02-04T03:43:06;14.47;;;2.60;;
24637;SDS011;12773;50.162;8.548;2023-02-04T03:45:54;11.08;;;2.58;;
24637;SDS011;12773;50.162;8.548;2023-02-04T03:48:41;18.85;;;2.83;;
24637;SDS011;12773;50.162;8.548;2023-02-04T03:51:29;17.80;;;2.62;;
24637;SDS011;12773;50.162;8.548;2023-02-04T03:54:17;20.43;;;3.27;;
24637;SDS011;12773;50.162;8.548;2023-02-04T03:57:04;18.37;;;2.35;;
24637;SDS011;12773;50.162;8.548;2023-02-04T03:59:52;16.73;;;2.55;;
24637;SDS011;12773;50.162;8.548;2023-02-04T04:02:39;21.90;;;3.15;;
24637;SDS011;12773;50.162;8.548;2023-02-04T04:05:27;15.83;;;3.27;;
24637;SDS011;12773;50.162;8.548;2023-02-04T04:08:14;18.45;;;3.05;;
24637;SDS011;12773;50.162;8.548;2023-02-04T04:11:02;15.68;;;2.72;;
24637;SDS011;12773;50.162;8.548;2023-02-04T04:13:49;25.10;;;2.98;;
24637;SDS011;12773;50.162;8.548;2023-02-04T04:16:37;15.50;;;2.65;;
24637;SDS011;12773;50.162;8.548;2023-02-04T04:19:24;21.30;;;3.30;;
24637;SDS011;12773;50.162;8.548;2023-02-04T04:22:11;22.98;;;2.77;;
24637;SDS011;12773;50.162;8.548;2023-02-04T04:24:59;19.37;;;2.92;;
24637;SDS011;12773;50.162;8.548;2023-02-04T04:27:46;30.92;;;3.10;;
24637;SDS011;12773;50.162;8.548;2023-02-04T04:30:34;13.80;;;2.87;;
24637;SDS011;12773;50.162;8.548;2023-02-04T04:33:21;20.20;;;3.12;;
24637;SDS011;12773;50.162;8.548;2023-02-04T04:36:09;27.32;;;3.80;;
24637;SDS011;12773;50.162;8.548;2023-02-04T04:38:56;22.05;;;3.08;;
24637;SDS011;12773;50.162;8.548;2023-02-04T04:41:47;29.05;;;3.62;;
24637;SDS011;12773;50.162;8.548;2023-02-04T04:44:34;15.40;;;2.85;;
24637;SDS011;12773;50.162;8.548;2023-02-04T04:47:22;25.23;;;2.98;;
24637;SDS011;12773;50.162;8.548;2023-02-04T04:50:09;21.90;;;3.33;;
24637;SDS011;12773;50.162;8.548;2023-02-04T04:52:57;19.15;;;2.60;;
24637;SDS011;12773;50.162;8.548;2023-02-04T04:55:45;23.45;;;3.10;;
24637;SDS011;12773;50.162;8.548;2023-02-04T04:58:32;19.55;;;2.77;;
24637;SDS011;12773;50.162;8.548;2023-02-04T05:01:20;20.65;;;2.95;;
24637;SDS011;12773;50.162;8.548;2023-02-04T05:04:07;12.23;;;2.27;;
24637;SDS011;12773;50.162;8.548;2023-02-04T05:06:55;15.68;;;2.80;;
24637;SDS011;12773;50.162;8.548;2023-02-04T05:09:42;21.30;;;3.17;;
24637;SDS011;12773;50.162;8.548;2023-02-04T05:12:29;16.77;;;2.75;;
24637;SDS011;12773;50.162;8.548;2023-02-04T05:15:17;29.50;;;3.55;;
24637;SDS011;12773;50.162;8.548;2023-02-04T05:18:04;21.42;;;3.20;;
24637;SDS011;12773;50.162;8.548;2023-02-04T05:20:51;22.62;;;3.25;;
24637;SDS011;12773;50.162;8.548;2023-02-04T05:23:40;22.35;;;3.17;;
24637;SDS011;12773;50.162;8.548;2023-02-04T05:26:27;23.35;;;2.95;;
24637;SDS011;12773;50.162;8.548;2023-02-04T05:29:15;21.85;;;3.22;;
24637;SDS011;12773;50.162;8.548;2023-02-04T05:32:03;20.92;;;3.33;;
24637;SDS011;12773;50.162;8.548;2023-02-04T05:34:50;20.00;;;3.08;;
24637;SDS011;12773;50.162;8.548;2023-02-04T05:37:38;28.95;;;3.05;;
24637;SDS011;12773;50.162;8.548;2023-02-04T05:40:25;18.65;;;2.85;;
24637;SDS011;12773;50.162;8.548;2023-02-04T05:43:13;17.10;;;3.08;;
24637;SDS011;12773;50.162;8.548;2023-02-04T05:46:00;21.33;;;3.08;;
24637;SDS011;12773;50.162;8.548;2023-02-04T05:48:48;20.50;;;3.17;;
24637;SDS011;12773;50.162;8.548;2023-02-04T05:51:36;22.10;;;2.92;;
24637;SDS011;12773;50.162;8.548;2023-02-04T05:54:23;21.02;;;2.65;;
24637;SDS011;12773;50.162;8.548;2023-02-04T05:57:11;14.90;;;2.52;;
24637;SDS011;12773;50.162;8.548;2023-02-04T05:59:58;23.10;;;3.00;;
24637;SDS011;12773;50.162;8.548;2023-02-04T06:02:45;23.55;;;3.55;;
24637;SDS011;12773;50.162;8.548;2023-02-04T06:05:33;18.10;;;3.00;;
24637;SDS011;12773;50.162;8.548;2023-02-04T06:08:20;22.45;;;2.98;;
24637;SDS011;12773;50.162;8.548;2023-02-04T06:11:08;23.50;;;3.17;;
24637;SDS011;12773;50.162;8.548;2023-02-04T06:13:55;20.23;;;3.05;;
24637;SDS011;12773;50.162;8.548;2023-02-04T06:16:43;24.10;;;3.60;;
24637;SDS011;12773;50.162;8.548;2023-02-04T06:19:30;21.80;;;3.15;;
24637;SDS011;12773;50.162;8.548;2023-02-04T06:22:17;27.02;;;3.02;;
24637;SDS011;12773;50.162;8.548;2023-02-04T06:25:05;24.80;;;3.75;;
24637;SDS011;12773;50.162;8.548;2023-02-04T06:27:53;22.67;;;3.05;;
24637;SDS011;12773;50.162;8.548;2023-02-04T06:30:40;19.02;;;4.22;;
24637;SDS011;12773;50.162;8.548;2023-02-04T06:33:28;24.27;;;2.87;;
24637;SDS011;12773;50.162;8.548;2023-02-04T06:36:15;23.15;;;2.90;;
24637;SDS011;12773;50.162;8.548;2023-02-04T06:39:03;17.80;;;3.20;;
24637;SDS011;12773;50.162;8.548;2023-02-04T06:41:51;23.12;;;3.45;;
24637;SDS011;12773;50.162;8.548;2023-02-04T06:44:38;14.20;;;2.92;;
24637;SDS011;12773;50.162;8.548;2023-02-04T06:47:25;16.37;;;2.98;;
24637;SDS011;12773;50.162;8.548;2023-02-04T06:50:13;22.60;;;2.95;;
24637;SDS011;12773;50.162;8.548;2023-02-04T06:53:02;24.18;;;3.30;;
24637;SDS011;12773;50.162;8.548;2023-02-04T06:55:49;15.45;;;2.87;;
24637;SDS011;12773;50.162;8.548;2023-02-04T06:58:37;18.00;;;3.33;;
24637;SDS011;12773;50.162;8.548;2023-02-04T07:01:26;18.95;;;3.05;;
24637;SDS011;12773;50.162;8.548;2023-02-04T07:04:15;25.20;;;2.80;;
24637;SDS011;12773;50.162;8.548;2023-02-04T07:07:02;17.90;;;2.90;;
24637;SDS011;12773;50.162;8.548;2023-02-04T07:09:50;13.43;;;2.45;;
24637;SDS011;12773;50.162;8.548;2023-02-04T07:12:37;20.25;;;3.58;;
24637;SDS011;12773;50.162;8.548;2023-02-04T07:15:24;18.57;;;2.80;;
24637;SDS011;12773;50.162;8.548;2023-02-04T07:18:12;17.27;;;3.30;;
24637;SDS011;12773;50.162;8.548;2023-02-04T07:20:59;19.70;;;3.00;;
24637;SDS011;12773;50.162;8.548;2023-02-04T07:23:47;29.40;;;3.67;;
24637;SDS011;12773;50.162;8.548;2023-02-04T07:26:34;17.40;;;3.27;;
24637;SDS011;12773;50.162;8.548;2023-02-04T07:29:21;26.85;;;3.95;;
24637;SDS011;12773;50.162;8.548;2023-02-04T07:32:11;24.70;;;4.33;;
24637;SDS011;12773;50.162;8.548;2023-02-04T07:34:58;16.93;;;3.45;;
24637;SDS011;12773;50.162;8.548;2023-02-04T07:37:46;17.10;;;2.75;;
24637;SDS011;12773;50.162;8.548;2023-02-04T07:40:33;21.87;;;3.58;;
24637;SDS011;12773;50.162;8.548;2023-02-04T07:43:21;23.22;;;3.98;;
24637;SDS011;12773;50.162;8.548;2023-02-04T07:46:08;23.42;;;3.47;;
24637;SDS011;12773;50.162;8.548;2023-02-04T07:48:56;20.75;;;2.95;;
24637;SDS011;12773;50.162;8.548;2023-02-04T07:51:44;20.15;;;3.35;;
24637;SDS011;12773;50.162;8.548;2023-02-04T07:54:31;19.75;;;3.10;;
24637;SDS011;12773;50.162;8.548;2023-02-04T07:57:19;24.35;;;3.22;;
24637;SDS011;12773;50.162;8.548;2023-02-04T08:00:07;26.93;;;3.35;;
24637;SDS011;12773;50.162;8.548;2023-02-04T08:02:56;18.42;;;3.47;;
24637;SDS011;12773;50.162;8.548;2023-02-04T08:05:44;19.23;;;4.05;;
24637;SDS011;12773;50.162;8.548;2023-02-04T08:08:31;27.87;;;3.05;;
24637;SDS011;12773;50.162;8.548;2023-02-04T08:11:19;25.08;;;3.33;;
24637;SDS011;12773;50.162;8.548;2023-02-04T08:14:06;23.02;;;3.00;;
24637;SDS011;12773;50.162;8.548;2023-02-04T08:16:53;20.82;;;3.72;;
24637;SDS011;12773;50.162;8.548;2023-02-04T08:19:41;18.67;;;3.60;;
24637;SDS011;12773;50.162;8.548;2023-02-04T08:22:28;22.05;;;3.70;;
24637;SDS011;12773;50.162;8.548;2023-02-04T08:25:16;24.30;;;3.65;;
24637;SDS011;12773;50.162;8.548;2023-02-04T08:28:03;21.90;;;3.40;;
24637;SDS011;12773;50.162;8.548;2023-02-04T08:30:51;22.32;;;3.25;;
24637;SDS011;12773;50.162;8.548;2023-02-04T08:33:38;19.95;;;3.02;;
24637;SDS011;12773;50.162;8.548;2023-02-04T08:36:26;17.27;;;3.25;;
24637;SDS011;12773;50.162;8.548;2023-02-04T08:39:13;18.57;;;2.92;;
24637;SDS011;12773;50.162;8.548;2023-02-04T08:42:01;19.42;;;2.62;;
24637;SDS011;12773;50.162;8.548;2023-02-04T08:44:48;13.80;;;2.62;;
24637;SDS011;12773;50.162;8.548;2023-02-04T08:47:35;18.35;;;2.67;;
24637;SDS011;12773;50.162;8.548;2023-02-04T08:50:23;21.52;;;2.80;;
24637;SDS011;12773;50.162;8.548;2023-02-04T08:53:11;18.65;;;3.22;;
24637;SDS011;12773;50.162;8.548;2023-02-04T08:55:58;18.75;;;2.80;;
24637;SDS011;12773;50.162;8.548;2023-02-04T08:58:46;21.60;;;3.17;;
24637;SDS011;12773;50.162;8.548;2023-02-04T09:01:34;20.65;;;2.98;;
24637;SDS011;12773;50.162;8.548;2023-02-04T09:04:22;17.30;;;2.70;;
24637;SDS011;12773;50.162;8.548;2023-02-04T09:07:10;18.55;;;2.98;;
24637;SDS011;12773;50.162;8.548;2023-02-04T09:10:00;16.67;;;2.90;;
24637;SDS011;12773;50.162;8.548;2023-02-04T09:12:47;23.20;;;3.35;;
24637;SDS011;12773;50.162;8.548;2023-02-04T09:15:36;23.62;;;3.20;;
24637;SDS011;12773;50.162;8.548;2023-02-04T09:18:24;23.07;;;3.37;;
24637;SDS011;12773;50.162;8.548;2023-02-04T09:21:11;25.52;;;2.87;;
24637;SDS011;12773;50.162;8.548;2023-02-04T09:23:59;19.98;;;2.85;;
24637;SDS011;12773;50.162;8.548;2023-02-04T09:26:46;20.23;;;2.60;;
24637;SDS011;12773;50.162;8.548;2023-02-04T09:29:33;19.85;;;2.83;;
24637;SDS011;12773;50.162;8.548;2023-02-04T09:32:21;16.73;;;3.55;;
24637;SDS011;12773;50.162;8.548;2023-02-04T09:35:08;18.50;;;2.90;;
24637;SDS011;12773;50.162;8.548;2023-02-04T09:37:56;25.10;;;3.20;;
24637;SDS011;12773;50.162;8.548;2023-02-04T09:40:45;13.75;;;2.60;;
24637;SDS011;12773;50.162;8.548;2023-02-04T09:43:35;21.25;;;3.02;;
24637;SDS011;12773;50.162;8.548;2023-02-04T09:46:24;25.32;;;2.75;;
24637;SDS011;12773;50.162;8.548;2023-02-04T09:49:15;26.48;;;2.67;;
24637;SDS011;12773;50.162;8.548;2023-02-04T09:52:03;17.73;;;2.67;;
24637;SDS011;12773;50.162;8.548;2023-02-04T09:54:51;18.60;;;2.58;;
24637;SDS011;12773;50.162;8.548;2023-02-04T09:57:39;15.28;;;2.17;;
24637;SDS011;12773;50.162;8.548;2023-02-04T10:00:28;19.50;;;2.55;;
24637;SDS011;12773;50.162;8.548;2023-02-04T10:03:18;21.97;;;3.12;;
24637;SDS011;12773;50.162;8.548;2023-02-04T10:06:09;23.12;;;2.70;;
24637;SDS011;12773;50.162;8.548;2023-02-04T10:08:58;22.27;;;2.67;;
24637;SDS011;12773;50.162;8.548;2023-02-04T10:11:46;19.82;;;2.55;;
24637;SDS011;12773;50.162;8.548;2023-02-04T10:14:34;22.85;;;3.10;;
24637;SDS011;12773;50.162;8.548;2023-02-04T10:17:21;20.35;;;2.75;;
24637;SDS011;12773;50.162;8.548;2023-02-04T10:20:13;23.30;;;3.58;;
24637;SDS011;12773;50.162;8.548;2023-02-04T10:23:01;23.40;;;3.40;;
24637;SDS011;12773;50.162;8.548;2023-02-04T10:25:54;22.82;;;3.33;;
24637;SDS011;12773;50.162;8.548;2023-02-04T10:28:37;20.37;;;3.55;;
24637;SDS011;12773;50.162;8.548;2023-02-04T10:31:31;21.93;;;2.77;;
24637;SDS011;12773;50.162;8.548;2023-02-04T10:34:30;18.32;;;2.87;;
24637;SDS011;12773;50.162;8.548;2023-02-04T10:37:23;22.07;;;3.35;;
24637;SDS011;12773;50.162;8.548;2023-02-04T10:40:28;16.48;;;3.12;;
24637;SDS011;12773;50.162;8.548;2023-02-04T10:43:22;26.45;;;2.87;;
24637;SDS011;12773;50.162;8.548;2023-02-04T10:46:09;15.98;;;2.70;;
24637;SDS011;12773;50.162;8.548;2023-02-04T10:48:57;14.53;;;3.25;;
24637;SDS011;12773;50.162;8.548;2023-02-04T10:51:45;15.23;;;2.77;;
24637;SDS011;12773;50.162;8.548;2023-02-04T10:54:34;22.15;;;4.80;;
24637;SDS011;12773;50.162;8.548;2023-02-04T10:57:28;18.32;;;2.25;;
24637;SDS011;12773;50.162;8.548;2023-02-04T11:00:15;17.52;;;2.30;;
24637;SDS011;12773;50.162;8.548;2023-02-04T11:03:15;21.23;;;2.55;;
24637;SDS011;12773;50.162;8.548;2023-02-04T11:06:10;23.00;;;2.65;;
24637;SDS011;12773;50.162;8.548;2023-02-04T11:09:01;16.12;;;2.17;;
24637;SDS011;12773;50.162;8.548;2023-02-04T11:11:49;14.93;;;2.47;;
24637;SDS011;12773;50.162;8.548;2023-02-04T11:14:37;16.10;;;2.20;;
24637;SDS011;12773;50.162;8.548;2023-02-04T11:17:28;17.77;;;2.10;;
24637;SDS011;12773;50.162;8.548;2023-02-04T11:20:28;13.80;;;2.33;;
24637;SDS011;12773;50.162;8.548;2023-02-04T11:23:15;10.20;;;2.35;;
24637;SDS011;12773;50.162;8.548;2023-02-04T11:26:09;18.27;;;2.17;;
24637;SDS011;12773;50.162;8.548;2023-02-04T11:34:44;9.48;;;2.58;;
24637;SDS011;12773;50.162;8.548;2023-02-04T11:37:40;11.25;;;2.05;;
24637;SDS011;12773;50.162;8.548;2023-02-04T11:40:33;13.68;;;2.05;;
24637;SDS011;12773;50.162;8.548;2023-02-04T11:43:23;13.18;;;1.67;;
24637;SDS011;12773;50.162;8.548;2023-02-04T11:46:15;13.08;;;2.02;;
24637;SDS011;12773;50.162;8.548;2023-02-04T11:49:08;11.95;;;1.80;;
24637;SDS011;12773;50.162;8.548;2023-02-04T11:52:11;12.05;;;2.02;;
24637;SDS011;12773;50.162;8.548;2023-02-04T11:54:54;18.07;;;2.47;;
24637;SDS011;12773;50.162;8.548;2023-02-04T11:57:49;17.75;;;2.10;;
24637;SDS011;12773;50.162;8.548;2023-02-04T12:00:37;14.07;;;1.60;;
24637;SDS011;12773;50.162;8.548;2023-02-04T12:03:28;10.75;;;1.55;;
24637;SDS011;12773;50.162;8.548;2023-02-04T12:06:23;15.15;;;2.10;;
24637;SDS011;12773;50.162;8.548;2023-02-04T12:12:05;8.03;;;1.57;;
24637;SDS011;12773;50.162;8.548;2023-02-04T12:15:01;14.35;;;2.00;;
24637;SDS011;12773;50.162;8.548;2023-02-04T12:17:58;13.03;;;2.08;;
24637;SDS011;12773;50.162;8.548;2023-02-04T12:20:36;9.60;;;1.50;;
24637;SDS011;12773;50.162;8.548;2023-02-04T12:23:25;12.98;;;1.87;;
24637;SDS011;12773;50.162;8.548;2023-02-04T12:26:15;18.55;;;2.85;;
24637;SDS011;12773;50.162;8.548;2023-02-04T12:29:02;15.53;;;3.30;;
24637;SDS011;12773;50.162;8.548;2023-02-04T12:31:50;16.67;;;2.00;;
24637;SDS011;12773;50.162;8.548;2023-02-04T12:34:38;13.80;;;2.10;;
24637;SDS011;12773;50.162;8.548;2023-02-04T12:37:25;10.60;;;1.90;;
24637;SDS011;12773;50.162;8.548;2023-02-04T12:40:17;10.00;;;1.60;;
24637;SDS011;12773;50.162;8.548;2023-02-04T12:43:05;9.73;;;1.60;;
24637;SDS011;12773;50.162;8.548;2023-02-04T12:45:53;10.15;;;1.80;;
24637;SDS011;12773;50.162;8.548;2023-02-04T12:48:40;13.35;;;2.27;;
24637;SDS011;12773;50.162;8.548;2023-02-04T12:51:28;6.75;;;1.62;;
24637;SDS011;12773;50.162;8.548;2023-02-04T12:54:17;11.50;;;1.72;;
24637;SDS011;12773;50.162;8.548;2023-02-04T12:57:06;11.57;;;2.08;;
24637;SDS011;12773;50.162;8.548;2023-02-04T12:59:53;12.90;;;2.05;;
24637;SDS011;12773;50.162;8.548;2023-02-04T13:02:43;11.57;;;2.08;;
24637;SDS011;12773;50.162;8.548;2023-02-04T13:05:30;13.95;;;1.95;;
24637;SDS011;12773;50.162;8.548;2023-02-04T13:08:19;9.73;;;1.85;;
24637;SDS011;12773;50.162;8.548;2023-02-04T13:11:07;9.65;;;1.67;;
24637;SDS011;12773;50.162;8.548;2023-02-04T13:13:54;12.47;;;1.85;;
24637;SDS011;12773;50.162;8.548;2023-02-04T13:16:42;9.80;;;1.80;;
24637;SDS011;12773;50.162;8.548;2023-02-04T13:19:29;10.15;;;1.72;;
24637;SDS011;12773;50.162;8.548;2023-02-04T13:22:17;11.18;;;2.62;;
24637;SDS011;12773;50.162;8.548;2023-02-04T13:25:05;13.83;;;2.30;;
24637;SDS011;12773;50.162;8.548;2023-02-04T13:27:52;10.55;;;2.02;;
24637;SDS011;12773;50.162;8.548;2023-02-04T13:30:39;12.03;;;1.65;;
24637;SDS011;12773;50.162;8.548;2023-02-04T13:33:27;11.03;;;1.80;;
24637;SDS011;12773;50.162;8.548;2023-02-04T13:36:15;13.00;;;2.47;;
24637;SDS011;12773;50.162;8.548;2023-02-04T13:39:03;16.32;;;2.52;;
24637;SDS011;12773;50.162;8.548;2023-02-04T13:41:50;13.98;;;2.00;;
24637;SDS011;12773;50.162;8.548;2023-02-04T13:44:38;12.45;;;1.60;;
24637;SDS011;12773;50.162;8.548;2023-02-04T13:47:25;11.68;;;2.00;;
24637;SDS011;12773;50.162;8.548;2023-02-04T13:50:12;15.83;;;2.50;;
24637;SDS011;12773;50.162;8.548;2023-02-04T13:53:01;12.10;;;2.15;;
24637;SDS011;12773;50.162;8.548;2023-02-04T13:55:48;11.80;;;2.20;;
24637;SDS011;12773;50.162;8.548;2023-02-04T13:58:36;20.27;;;2.70;;
24637;SDS011;12773;50.162;8.548;2023-02-04T14:01:24;16.12;;;2.20;;
24637;SDS011;12773;50.162;8.548;2023-02-04T14:04:13;18.32;;;2.15;;
24637;SDS011;12773;50.162;8.548;2023-02-04T14:07:00;19.87;;;2.55;;
24637;SDS011;12773;50.162;8.548;2023-02-04T14:09:47;17.73;;;2.33;;
24637;SDS011;12773;50.162;8.548;2023-02-04T14:12:34;11.53;;;1.87;;
24637;SDS011;12773;50.162;8.548;2023-02-04T14:15:22;12.13;;;2.02;;
24637;SDS011;12773;50.162;8.548;2023-02-04T14:18:10;11.33;;;2.02;;
24637;SDS011;12773;50.162;8.548;2023-02-04T14:20:57;14.10;;;2.12;;
24637;SDS011;12773;50.162;8.548;2023-02-04T14:23:45;12.60;;;2.15;;
24637;SDS011;12773;50.162;8.548;2023-02-04T14:26:32;7.92;;;1.45;;
24637;SDS011;12773;50.162;8.548;2023-02-04T14:29:20;14.00;;;1.80;;
24637;SDS011;12773;50.162;8.548;2023-02-04T14:32:08;10.78;;;1.75;;
24637;SDS011;12773;50.162;8.548;2023-02-04T14:34:55;11.25;;;1.80;;
24637;SDS011;12773;50.162;8.548;2023-02-04T14:37:42;15.88;;;2.47;;
24637;SDS011;12773;50.162;8.548;2023-02-04T14:40:30;12.28;;;2.00;;
24637;SDS011;12773;50.162;8.548;2023-02-04T14:43:18;10.40;;;1.92;;
24637;SDS011;12773;50.162;8.548;2023-02-04T14:46:05;20.08;;;3.02;;
24637;SDS011;12773;50.162;8.548;2023-02-04T14:48:52;12.20;;;2.10;;
24637;SDS011;12773;50.162;8.548;2023-02-04T14:51:40;11.68;;;2.05;;
24637;SDS011;12773;50.162;8.548;2023-02-04T14:54:28;16.85;;;2.12;;
24637;SDS011;12773;50.162;8.548;2023-02-04T14:57:16;15.70;;;2.72;;
24637;SDS011;12773;50.162;8.548;2023-02-04T15:00:03;16.20;;;1.87;;
24637;SDS011;12773;50.162;8.548;2023-02-04T15:02:51;8.03;;;1.75;;
24637;SDS011;12773;50.162;8.548;2023-02-04T15:05:38;10.93;;;1.80;;
24637;SDS011;12773;50.162;8.548;2023-02-04T15:08:26;14.40;;;2.47;;
24637;SDS011;12773;50.162;8.548;2023-02-04T15:11:13;17.10;;;2.17;;
24637;SDS011;12773;50.162;8.548;2023-02-04T15:14:00;12.28;;;1.95;;
24637;SDS011;12773;50.162;8.548;2023-02-04T15:16:49;12.07;;;1.90;;
24637;SDS011;12773;50.162;8.548;2023-02-04T15:19:41;12.50;;;2.00;;
24637;SDS011;12773;50.162;8.548;2023-02-04T15:22:26;13.13;;;2.05;;
24637;SDS011;12773;50.162;8.548;2023-02-04T15:25:13;11.25;;;1.82;;
24637;SDS011;12773;50.162;8.548;2023-02-04T15:28:01;11.15;;;1.72;;
24637;SDS011;12773;50.162;8.548;2023-02-04T15:30:48;11.68;;;1.90;;
24637;SDS011;12773;50.162;8.548;2023-02-04T15:33:36;9.10;;;1.80;;
24637;SDS011;12773;50.162;8.548;2023-02-04T15:36:24;15.08;;;2.30;;
24637;SDS011;12773;50.162;8.548;2023-02-04T15:39:11;12.93;;;1.92;;
24637;SDS011;12773;50.162;8.548;2023-02-04T15:41:58;14.28;;;2.02;;
24637;SDS011;12773;50.162;8.548;2023-02-04T15:44:45;16.02;;;2.72;;
24637;SDS011;12773;50.162;8.548;2023-02-04T15:47:33;12.70;;;2.37;;
24637;SDS011;12773;50.162;8.548;2023-02-04T15:50:20;17.50;;;3.55;;
24637;SDS011;12773;50.162;8.548;2023-02-04T15:53:07;14.13;;;3.62;;
24637;SDS011;12773;50.162;8.548;2023-02-04T15:55:55;14.05;;;4.22;;
24637;SDS011;12773;50.162;8.548;2023-02-04T15:58:43;18.57;;;5.28;;
24637;SDS011;12773;50.162;8.548;2023-02-04T16:01:31;15.93;;;5.10;;
24637;SDS011;12773;50.162;8.548;2023-02-04T16:04:18;21.85;;;5.10;;
24637;SDS011;12773;50.162;8.548;2023-02-04T16:07:08;19.52;;;4.75;;
24637;SDS011;12773;50.162;8.548;2023-02-04T16:09:55;19.80;;;4.70;;
24637;SDS011;12773;50.162;8.548;2023-02-04T16:12:43;15.25;;;3.60;;
24637;SDS011;12773;50.162;8.548;2023-02-04T16:15:31;12.37;;;3.60;;
24637;SDS011;12773;50.162;8.548;2023-02-04T16:18:19;16.70;;;4.35;;
24637;SDS011;12773;50.162;8.548;2023-02-04T16:21:08;17.23;;;3.77;;
24637;SDS011;12773;50.162;8.548;2023-02-04T16:23:56;24.40;;;3.27;;
24637;SDS011;12773;50.162;8.548;2023-02-04T16:26:44;17.45;;;4.17;;
24637;SDS011;12773;50.162;8.548;2023-02-04T16:29:31;17.85;;;3.98;;
24637;SDS011;12773;50.162;8.548;2023-02-04T16:32:19;14.23;;;2.25;;
24637;SDS011;12773;50.162;8.548;2023-02-04T16:35:07;17.40;;;3.85;;
24637;SDS011;12773;50.162;8.548;2023-02-04T16:37:54;13.83;;;3.50;;
24637;SDS011;12773;50.162;8.548;2023-02-04T16:40:42;11.83;;;2.47;;
24637;SDS011;12773;50.162;8.548;2023-02-04T16:43:30;12.68;;;3.95;;
24637;SDS011;12773;50.162;8.548;2023-02-04T16:46:17;17.60;;;2.33;;
24637;SDS011;12773;50.162;8.548;2023-02-04T16:49:07;10.95;;;2.15;;